La Jara, New Mexico
Current Conditions -  °F | °C
As of 6:35 PM on Tuesday 27 Jan 2015 (Local Time) from KLAM Reporting Station
Clear Clear  
Wind Chill: 42°   Ceiling: Unl
Heat Index: 47°   Visibility: 10mi
Dew Point: 32°   Wind: 12mph
Humidity: 57%   Direction: 270°W
Pressure: 30.29"   Gusts: NA
Location:  36.09°N, 106.97°W
Report Text: KLAM 280135Z AUTO 27010KT 10SM CLR 08/00 A3029 RMK AO2 T00830001
Loading
Personal Weather Stations






























Interactive Weather Map New forecast layout! Learn more

10-Day Weather Forecast

Advertisements
Track Severe Weather on mobile